Fort Hope, Canada
Current Conditions -  °F | °C
As of 6:29 AM on Friday 31 Oct 2014 (Local Time) from CYLH Reporting Station
Overcast Overcast  
Wind Chill: 17°   Ceiling: 1900
Heat Index: 25°   Visibility: 9mi
Dew Point: 21°   Wind: 7mph
Humidity: 86%   Direction: 300°WNW
Pressure: 30.42"   Gusts: NA
Location:  51.55°N, 87.98°W
Report Text: CYLH 311029Z AUTO 30006KT 260V330 9SM OVC019 M04/M06 A3042 RMK SLP321
Loading
Personal Weather Stations






























Interactive Weather Map
Tropical Storm Tracking
New forecast layout! Learn more

10-Day Weather Forecast

Advertisements
Track Severe Weather on mobile